CheckWX is a tool to help pilots better visualize weather data.  It is not intended as a substitute for an official pre-flight weather briefing.

15:34:03 UTC

ESSA METAR
Stockholm-Arlanda Airport
Stockholm, Sweden
Current

44 mins ago

ESSA 201450Z 15009KT CAVOK 23/14 Q1011 NOSIG
Observed
May-20 @ 14:50 UTC
Wind
  • 150° at 9 KTS
Visibility
10,000+ meters
Flight Rules
VFR
Cloud Levels
  • Clear skies
Temperature
23°C / 73°F
Dewpoint
14°C / 57°F
Humidity
57%
Altimeter
29.85" Hg
Pressure
1010.92 hPa
Previous

1 hour ago

ESSA 201420Z 12010KT CAVOK 23/14 Q1011 NOSIG
Observed
May-20 @ 14:20 UTC
Wind
  • 120° at 10 KTS
Visibility
10,000+ meters
Flight Rules
VFR
Cloud Levels
  • Clear skies
Temperature
23°C / 73°F
Dewpoint
14°C / 57°F
Humidity
57%
Altimeter
29.85" Hg
Pressure
1010.92 hPa
Previous

2 hours ago

ESSA 201350Z 13009KT CAVOK 23/13 Q1011 NOSIG
Observed
May-20 @ 13:50 UTC
Wind
  • 130° at 9 KTS
Visibility
10,000+ meters
Flight Rules
VFR
Cloud Levels
  • Clear skies
Temperature
23°C / 73°F
Dewpoint
13°C / 55°F
Humidity
53%
Altimeter
29.85" Hg
Pressure
1010.92 hPa